Time;durP1;ratioP1;P1;durP2;ratioP2;P2;SDS_P1;SDS_P2;PMS_P1;PMS_P2;Temp;Humidity;BMP_temperature;BMP_pressure;BME280_temperature;BME280_humidity;BME280_pressure;Samples;Min_cycle;Max_cycle;Signal;HPM_P1;HPM_P2
2023/04/10 00:00:36;;;;;;;74.73;47.33;;;5.60;1.00;;;;;;5045198;28;20207;-68
2023/04/10 00:03:04;;;;;;;75.53;47.43;;;5.50;1.00;;;;;;5029074;28;20218;-65
2023/04/10 00:05:32;;;;;;;74.70;46.47;;;5.50;1.00;;;;;;5045857;28;20671;-65
2023/04/10 00:07:59;;;;;;;77.30;47.40;;;5.40;1.00;;;;;;5045184;28;20180;-68
2023/04/10 00:10:29;;;;;;;77.40;48.07;;;5.50;1.00;;;;;;5043768;28;20196;-65
2023/04/10 00:12:57;;;;;;;84.10;49.80;;;5.40;1.00;;;;;;5036581;28;20195;-71
2023/04/10 00:15:24;;;;;;;78.37;48.67;;;5.40;1.00;;;;;;5044894;28;20195;-66
2023/04/10 00:17:54;;;;;;;79.50;49.93;;;5.40;1.00;;;;;;5045621;28;20278;-67
2023/04/10 00:20:22;;;;;;;86.37;51.47;;;5.30;1.00;;;;;;5037265;28;20214;-66
2023/04/10 00:22:51;;;;;;;83.00;52.33;;;5.30;1.00;;;;;;5021991;28;20211;-66
2023/04/10 00:25:18;;;;;;;82.87;52.50;;;5.20;1.00;;;;;;5045336;28;20598;-65
2023/04/10 00:27:45;;;;;;;84.90;51.07;;;5.20;1.00;;;;;;5045056;28;20860;-64
2023/04/10 00:30:12;;;;;;;95.30;56.07;;;5.20;1.00;;;;;;5040703;28;20623;-66
2023/04/10 00:32:40;;;;;;;89.40;56.37;;;5.20;1.00;;;;;;5045484;28;20203;-64
2023/04/10 00:35:10;;;;;;;93.40;56.33;;;5.20;1.00;;;;;;5025204;28;20281;-65
2023/04/10 00:37:38;;;;;;;89.00;54.57;;;5.10;1.00;;;;;;5028012;28;20227;-64
2023/04/10 00:40:06;;;;;;;92.60;55.93;;;5.10;1.00;;;;;;5033820;28;20293;-65
2023/04/10 00:42:33;;;;;;;92.83;54.93;;;5.10;1.00;;;;;;5034146;28;20212;-66
2023/04/10 00:45:00;;;;;;;97.73;57.53;;;5.10;1.00;;;;;;5034300;28;20188;-64
2023/04/10 00:47:27;;;;;;;93.80;55.87;;;5.10;1.00;;;;;;5036257;28;20204;-68
2023/04/10 00:49:54;;;;;;;92.50;56.37;;;5.20;1.00;;;;;;5037812;28;20675;-65
2023/04/10 00:52:22;;;;;;;94.37;55.67;;;5.20;1.00;;;;;;5037392;28;20191;-64
2023/04/10 00:54:49;;;;;;;89.90;54.40;;;5.20;1.00;;;;;;5034438;28;20287;-64
2023/04/10 00:57:20;;;;;;;95.03;57.33;;;5.20;1.00;;;;;;5034169;28;20575;-64
2023/04/10 00:59:50;;;;;;;91.40;55.37;;;5.10;1.00;;;;;;5032804;28;20223;-64
2023/04/10 01:02:18;;;;;;;95.40;55.10;;;5.10;1.00;;;;;;5039731;28;20242;-64
2023/04/10 01:04:46;;;;;;;89.63;54.70;;;5.10;1.00;;;;;;5043917;28;20231;-64
2023/04/10 01:07:52;;;;;;;93.40;56.30;;;5.10;1.00;;;;;;5049953;28;20222;-63
2023/04/10 01:10:45;;;;;;;101.93;55.90;;;5.00;1.00;;;;;;5032169;28;20286;-63
2023/04/10 01:13:24;;;;;;;99.90;58.33;;;5.00;1.00;;;;;;5050144;28;20192;-67
2023/04/10 01:16:09;;;;;;;100.53;58.27;;;5.00;1.00;;;;;;5032652;28;20249;-72
2023/04/10 01:18:45;;;;;;;95.43;58.50;;;4.90;1.00;;;;;;5065595;28;20242;-63
2023/04/10 01:21:15;;;;;;;102.33;59.97;;;4.90;1.00;;;;;;5047405;28;20272;-65
2023/04/10 01:24:05;;;;;;;110.63;63.77;;;4.90;1.00;;;;;;5056220;28;20752;-64
2023/04/10 01:26:55;;;;;;;107.23;61.00;;;4.90;1.00;;;;;;5018194;28;20204;-64
2023/04/10 01:29:26;;;;;;;105.50;61.57;;;4.90;1.00;;;;;;5050173;28;20192;-63
2023/04/10 01:32:01;;;;;;;109.27;63.33;;;4.90;1.00;;;;;;5044888;28;20198;-64
2023/04/10 01:34:42;;;;;;;113.87;64.87;;;4.90;1.00;;;;;;5047431;28;20667;-64
2023/04/10 01:37:30;;;;;;;113.33;66.83;;;4.90;1.00;;;;;;5046957;28;20693;-64
2023/04/10 01:40:02;;;;;;;107.40;64.03;;;4.90;1.00;;;;;;5043147;28;20192;-64
2023/04/10 01:42:33;;;;;;;116.27;64.70;;;4.90;1.00;;;;;;5047986;28;20219;-64
2023/04/10 01:45:02;;;;;;;110.30;66.47;;;4.90;1.00;;;;;;5039555;28;20242;-64
2023/04/10 01:47:30;;;;;;;113.77;65.20;;;4.90;1.00;;;;;;5046784;28;20196;-64
2023/04/10 01:49:58;;;;;;;104.53;62.47;;;4.90;1.00;;;;;;5044208;28;20199;-64
2023/04/10 01:52:26;;;;;;;105.47;62.10;;;4.90;1.00;;;;;;5030309;28;20203;-64
2023/04/10 01:55:06;;;;;;;105.33;61.13;;;4.90;1.00;;;;;;5063546;28;20203;-68
2023/04/10 01:57:48;;;;;;;108.10;61.40;;;4.90;1.00;;;;;;5040814;28;20195;-64
2023/04/10 02:00:16;;;;;;;94.53;56.10;;;4.90;1.00;;;;;;5045860;28;20207;-67
2023/04/10 02:02:44;;;;;;;97.17;57.07;;;4.90;1.00;;;;;;5047304;28;20223;-66
2023/04/10 02:05:14;;;;;;;98.27;57.53;;;4.90;1.00;;;;;;5043469;28;20223;-66
2023/04/10 02:07:57;;;;;;;99.70;56.57;;;4.90;1.00;;;;;;5048718;28;20634;-66
2023/04/10 02:10:34;;;;;;;94.57;54.80;;;4.80;1.00;;;;;;5046965;28;20207;-66
2023/04/10 02:13:13;;;;;;;94.27;54.50;;;4.80;1.00;;;;;;5046351;28;20261;-65
2023/04/10 02:15:44;;;;;;;94.23;55.23;;;4.80;1.00;;;;;;5048865;28;20191;-65
2023/04/10 02:18:15;;;;;;;93.77;55.70;;;4.80;1.00;;;;;;5055468;28;20283;-65
2023/04/10 02:20:43;;;;;;;91.10;54.27;;;4.80;1.00;;;;;;5040233;28;20222;-65
2023/04/10 02:23:14;;;;;;;88.17;54.17;;;4.80;1.00;;;;;;5047324;28;20219;-65
2023/04/10 02:25:42;;;;;;;91.23;53.40;;;4.70;1.00;;;;;;5030592;28;20199;-65
2023/04/10 02:28:09;;;;;;;86.83;52.97;;;4.70;1.00;;;;;;5041297;28;20195;-66
2023/04/10 02:30:38;;;;;;;94.47;54.23;;;4.70;1.00;;;;;;5064148;28;20287;-66
2023/04/10 02:33:05;;;;;;;91.23;53.43;;;4.70;1.00;;;;;;5046792;28;20210;-65
2023/04/10 02:35:33;;;;;;;89.77;52.70;;;4.70;1.00;;;;;;5047592;28;20196;-65
2023/04/10 02:38:02;;;;;;;88.50;51.83;;;4.70;1.00;;;;;;5047558;28;20187;-67
2023/04/10 02:40:31;;;;;;;85.40;52.63;;;4.70;1.00;;;;;;5045331;28;20667;-67
2023/04/10 02:43:16;;;;;;;87.17;51.93;;;4.60;1.00;;;;;;5033105;28;20310;-67
2023/04/10 02:45:45;;;;;;;86.83;52.67;;;4.60;1.00;;;;;;5029967;28;20223;-67
2023/04/10 02:48:18;;;;;;;87.57;51.23;;;4.60;1.00;;;;;;5047808;28;20679;-66
2023/04/10 02:50:56;;;;;;;93.10;50.93;;;4.60;1.00;;;;;;5044880;28;20187;-67
2023/04/10 02:53:24;;;;;;;84.87;49.40;;;4.60;1.00;;;;;;5047222;28;20204;-66
2023/04/10 02:55:55;;;;;;;80.90;49.87;;;4.60;1.00;;;;;;5045282;28;20231;-66
2023/04/10 02:58:22;;;;;;;83.97;49.77;;;4.60;1.00;;;;;;5046497;28;20203;-67
2023/04/10 03:00:52;;;;;;;82.90;50.40;;;4.50;1.00;;;;;;5046106;28;20273;-67
2023/04/10 03:03:26;;;;;;;81.90;49.33;;;4.50;1.00;;;;;;5045948;28;20224;-66
2023/04/10 03:05:55;;;;;;;84.20;50.10;;;4.50;1.00;;;;;;5045778;28;20210;-66
2023/04/10 03:08:29;;;;;;;91.47;52.47;;;4.50;1.00;;;;;;5046416;28;20187;-68
2023/04/10 03:10:56;;;;;;;80.83;49.10;;;4.50;1.00;;;;;;5047668;28;20203;-72
2023/04/10 03:13:23;;;;;;;86.07;49.40;;;4.40;1.00;;;;;;5029670;28;20230;-66
2023/04/10 03:15:50;;;;;;;81.07;49.77;;;4.40;1.00;;;;;;5045544;28;20671;-66
2023/04/10 03:18:17;;;;;;;80.03;49.50;;;4.40;1.00;;;;;;5045404;28;20196;-65
2023/04/10 03:20:48;;;;;;;85.07;51.07;;;4.30;1.00;;;;;;5061411;28;20192;-69
2023/04/10 03:23:15;;;;;;;85.37;49.63;;;4.30;1.00;;;;;;5047365;28;20208;-64
2023/04/10 03:25:42;;;;;;;75.83;47.40;;;4.30;1.00;;;;;;5046882;28;20236;-66
2023/04/10 03:28:10;;;;;;;85.37;49.23;;;4.30;1.00;;;;;;5046828;28;20733;-65
2023/04/10 03:30:43;;;;;;;73.67;45.57;;;4.30;1.00;;;;;;5047065;28;20296;-66
2023/04/10 03:33:10;;;;;;;74.53;45.50;;;4.30;1.00;;;;;;5047103;28;20778;-64
2023/04/10 03:35:37;;;;;;;69.73;44.17;;;4.30;1.00;;;;;;5046796;28;20625;-74
2023/04/10 03:38:06;;;;;;;77.53;45.10;;;4.40;1.00;;;;;;5038390;28;20598;-66
2023/04/10 03:40:34;;;;;;;74.77;44.47;;;4.40;1.00;;;;;;5046174;28;20237;-64
2023/04/10 03:43:02;;;;;;;72.60;44.43;;;4.40;1.00;;;;;;5044924;28;20207;-66
2023/04/10 03:45:31;;;;;;;72.17;45.03;;;4.40;1.00;;;;;;5045747;28;20248;-64
2023/04/10 03:47:59;;;;;;;73.93;44.23;;;4.30;1.00;;;;;;5047764;28;20287;-64
2023/04/10 03:50:32;;;;;;;72.97;44.33;;;4.30;1.00;;;;;;5045758;28;21043;-66
2023/04/10 03:53:00;;;;;;;70.33;43.30;;;4.30;1.00;;;;;;5028019;28;20203;-65
2023/04/10 03:55:27;;;;;;;64.53;41.30;;;4.30;1.00;;;;;;5042130;28;20798;-64
2023/04/10 03:57:54;;;;;;;70.30;43.33;;;4.40;1.00;;;;;;5038889;28;20210;-66
2023/04/10 04:00:26;;;;;;;66.37;40.87;;;4.30;1.00;;;;;;5055345;28;20265;-64
2023/04/10 04:03:03;;;;;;;66.43;40.40;;;4.40;1.00;;;;;;5046603;28;20251;-65
2023/04/10 04:06:06;;;;;;;64.20;39.40;;;4.30;1.00;;;;;;5044506;28;20206;-65
2023/04/10 04:09:01;;;;;;;64.07;39.23;;;4.40;1.00;;;;;;5047424;28;20993;-65
2023/04/10 04:11:47;;;;;;;63.73;37.50;;;4.30;1.00;;;;;;5044066;28;20329;-65
2023/04/10 04:14:40;;;;;;;69.00;39.40;;;4.30;1.00;;;;;;5024841;28;20217;-66
2023/04/10 04:17:36;;;;;;;62.67;37.20;;;4.30;1.00;;;;;;5046204;28;20728;-65
2023/04/10 04:20:07;;;;;;;63.60;39.10;;;4.30;1.00;;;;;;5044898;28;20203;-66
2023/04/10 04:23:10;;;;;;;60.37;38.33;;;4.30;1.00;;;;;;5043604;28;20718;-67
2023/04/10 04:25:56;;;;;;;63.50;38.87;;;4.30;1.00;;;;;;5043934;28;20192;-67
2023/04/10 04:28:49;;;;;;;65.00;39.37;;;4.30;1.00;;;;;;5042951;28;20229;-67
2023/04/10 04:31:31;;;;;;;63.20;38.20;;;4.20;1.00;;;;;;5045094;28;20199;-67
2023/04/10 04:34:17;;;;;;;74.10;41.37;;;4.20;1.00;;;;;;5045641;28;20218;-67
2023/04/10 04:37:03;;;;;;;64.07;38.07;;;4.20;1.00;;;;;;5043994;28;20276;-65
2023/04/10 04:39:39;;;;;;;65.37;39.63;;;4.10;1.00;;;;;;5046443;28;20188;-74
2023/04/10 04:42:17;;;;;;;62.57;39.10;;;4.10;1.00;;;;;;5036852;28;20218;-64
2023/04/10 04:45:00;;;;;;;69.20;38.87;;;4.10;1.00;;;;;;5044987;28;20660;-65
2023/04/10 04:47:46;;;;;;;66.80;40.83;;;4.10;1.00;;;;;;5047022;28;20203;-65
2023/04/10 04:50:39;;;;;;;58.43;36.73;;;4.10;1.00;;;;;;5039831;28;20295;-67
2023/04/10 04:53:36;;;;;;;63.10;39.17;;;4.10;1.00;;;;;;5044214;28;20207;-64
2023/04/10 04:56:32;;;;;;;65.17;38.83;;;4.10;1.00;;;;;;5027276;28;20265;-67
2023/04/10 04:59:18;;;;;;;63.73;40.20;;;4.20;1.00;;;;;;5043671;28;20249;-67
2023/04/10 05:02:00;;;;;;;66.60;39.53;;;4.20;1.00;;;;;;5031062;28;20570;-67
2023/04/10 05:04:55;;;;;;;65.10;39.47;;;4.20;1.00;;;;;;5045096;28;20264;-67
2023/04/10 05:07:43;;;;;;;61.47;36.90;;;4.30;1.00;;;;;;5043181;28;20210;-68
2023/04/10 05:10:36;;;;;;;61.60;38.10;;;4.40;1.00;;;;;;5043018;28;20242;-67
2023/04/10 05:13:28;;;;;;;59.27;37.43;;;4.50;1.00;;;;;;5042101;28;20265;-70
2023/04/10 05:16:13;;;;;;;59.43;36.73;;;4.60;1.00;;;;;;5043246;28;20294;-67
2023/04/10 05:18:55;;;;;;;64.20;36.97;;;4.70;1.00;;;;;;5044323;28;20195;-67
2023/04/10 05:21:41;;;;;;;61.57;36.90;;;4.80;1.00;;;;;;5044843;28;20202;-67
2023/04/10 05:24:29;;;;;;;62.67;39.20;;;4.90;1.00;;;;;;5047328;28;20746;-68
2023/04/10 05:27:21;;;;;;;57.90;34.47;;;5.00;1.00;;;;;;5048074;28;20291;-67
2023/04/10 05:30:07;;;;;;;59.03;36.10;;;5.30;1.00;;;;;;5048390;28;20257;-67
2023/04/10 05:32:53;;;;;;;56.03;34.10;;;5.40;1.00;;;;;;5049534;28;20238;-66
2023/04/10 05:35:37;;;;;;;56.30;33.67;;;5.60;1.00;;;;;;5049008;28;20773;-66
2023/04/10 05:38:17;;;;;;;55.67;35.70;;;5.80;1.00;;;;;;5048068;28;20207;-66
2023/04/10 05:40:54;;;;;;;51.17;32.17;;;6.00;1.00;;;;;;5046821;28;20242;-67
2023/04/10 05:43:35;;;;;;;53.23;34.60;;;6.20;1.00;;;;;;5046499;28;20211;-67
2023/04/10 05:46:20;;;;;;;51.10;34.13;;;6.50;1.00;;;;;;5031202;28;20697;-67
2023/04/10 05:49:06;;;;;;;53.90;32.90;;;6.70;1.00;;;;;;5047557;28;20205;-67
2023/04/10 05:51:33;;;;;;;52.07;32.67;;;6.90;1.00;;;;;;5048169;28;20672;-68
2023/04/10 05:54:23;;;;;;;56.00;33.03;;;7.10;1.00;;;;;;5029555;28;20237;-68
2023/04/10 05:57:12;;;;;;;51.13;32.77;;;7.30;1.00;;;;;;5046161;28;20204;-67
2023/04/10 05:59:42;;;;;;;48.80;33.23;;;7.60;1.00;;;;;;5048685;28;20196;-67
2023/04/10 06:02:31;;;;;;;46.07;28.90;;;8.20;1.00;;;;;;5044430;28;20727;-67
2023/04/10 06:04:59;;;;;;;44.27;27.50;;;8.90;1.00;;;;;;5031511;28;20230;-67
2023/04/10 06:07:28;;;;;;;44.40;28.53;;;9.50;1.00;;;;;;5045506;28;20204;-68
2023/04/10 06:09:58;;;;;;;46.47;30.27;;;9.90;1.00;;;;;;5049690;28;20192;-68
2023/04/10 06:12:26;;;;;;;40.67;26.30;;;9.90;1.00;;;;;;5051784;28;20284;-67
2023/04/10 06:14:55;;;;;;;39.00;25.63;;;9.90;1.00;;;;;;5027541;28;20655;-68
2023/04/10 06:17:24;;;;;;;38.30;25.40;;;9.90;1.00;;;;;;5033695;28;20207;-69
2023/04/10 06:19:52;;;;;;;36.47;23.83;;;9.90;1.00;;;;;;5051240;28;20591;-68
2023/04/10 06:22:20;;;;;;;33.17;21.93;;;9.80;1.00;;;;;;5050694;28;20302;-67
2023/04/10 06:24:47;;;;;;;33.60;22.00;;;9.90;1.00;;;;;;5050417;28;20237;-68
2023/04/10 06:27:15;;;;;;;30.70;20.33;;;10.30;1.00;;;;;;5031779;28;20202;-66
2023/04/10 06:29:43;;;;;;;27.73;19.93;;;11.10;1.00;;;;;;5032960;28;20198;-65
2023/04/10 06:32:10;;;;;;;26.70;18.63;;;11.70;1.00;;;;;;5030538;28;20290;-65
2023/04/10 06:34:39;;;;;;;25.83;17.70;;;12.20;1.00;;;;;;5030215;28;20206;-66
2023/04/10 06:37:08;;;;;;;22.87;16.93;;;13.10;1.00;;;;;;5030097;28;20195;-66
2023/04/10 06:39:36;;;;;;;20.37;15.27;;;14.10;1.00;;;;;;5043123;28;20728;-67
2023/04/10 06:42:03;;;;;;;25.20;16.10;;;15.50;1.00;;;;;;5042451;28;20195;-67
2023/04/10 06:44:54;;;;;;;18.02;14.80;;;16.70;1.00;;;;;;5032162;28;20317;-66
2023/04/10 06:47:21;;;;;;;20.00;16.15;;;17.70;1.00;;;;;;5045242;28;20540;-66
2023/04/10 06:49:48;;;;;;;20.27;15.07;;;16.30;1.00;;;;;;5026962;28;20214;-65
2023/04/10 06:52:16;;;;;;;18.27;13.98;;;17.80;1.00;;;;;;5046247;28;20207;-64
2023/04/10 06:54:46;;;;;;;18.83;14.60;;;17.90;1.00;;;;;;5046212;28;20195;-65
2023/04/10 06:57:13;;;;;;;16.35;13.93;;;18.80;1.00;;;;;;5044828;28;20204;-65
2023/04/10 06:59:41;;;;;;;15.57;13.02;;;18.70;1.00;;;;;;5043790;28;20559;-66
2023/04/10 07:02:08;;;;;;;16.75;13.35;;;20.10;1.00;;;;;;5043921;28;20226;-64
2023/04/10 07:04:35;;;;;;;18.88;13.80;;;20.90;1.00;;;;;;5045838;28;20235;-64
2023/04/10 07:07:04;;;;;;;16.80;14.30;;;19.90;1.00;;;;;;5042853;28;20594;-66
2023/04/10 07:09:31;;;;;;;22.05;13.23;;;19.20;1.00;;;;;;5046959;28;20670;-64
2023/04/10 07:11:58;;;;;;;18.20;14.07;;;19.20;1.00;;;;;;5045801;28;20253;-66
2023/04/10 07:14:25;;;;;;;17.70;13.55;;;19.20;1.00;;;;;;5044887;28;20207;-66
2023/04/10 07:16:52;;;;;;;17.98;13.98;;;20.80;1.00;;;;;;5045591;28;20239;-63
2023/04/10 07:19:20;;;;;;;17.73;14.23;;;22.10;1.00;;;;;;5045149;28;20298;-65
2023/04/10 07:21:50;;;;;;;18.85;13.73;;;23.30;1.00;;;;;;5044823;28;20225;-65
2023/04/10 07:24:17;;;;;;;16.35;12.63;;;23.10;1.00;;;;;;5044544;28;20295;-65
2023/04/10 07:26:45;;;;;;;13.82;12.23;;;22.50;1.00;;;;;;5045127;28;20275;-64
2023/04/10 07:29:13;;;;;;;14.32;12.65;;;22.00;1.00;;;;;;5044772;28;20203;-65
2023/04/10 07:31:40;;;;;;;15.30;11.85;;;20.90;1.00;;;;;;5044475;28;20740;-65
2023/04/10 07:34:09;;;;;;;13.90;12.40;;;21.60;1.00;;;;;;5045426;28;20207;-66
2023/04/10 07:36:36;;;;;;;16.98;11.60;;;22.30;1.00;;;;;;5044741;28;20723;-63
2023/04/10 07:39:03;;;;;;;14.63;11.38;;;24.70;1.00;;;;;;5024648;28;20241;-65
2023/04/10 07:41:30;;;;;;;13.45;10.68;;;24.80;1.00;;;;;;5035526;28;20207;-66
2023/04/10 07:43:57;;;;;;;12.57;11.27;;;25.50;1.00;;;;;;5041391;28;20211;-66
2023/04/10 07:46:26;;;;;;;11.40;10.15;;;24.50;1.00;;;;;;5045329;28;20200;-66
2023/04/10 07:48:54;;;;;;;11.52;10.05;;;27.00;1.00;;;;;;5040399;28;20210;-66
2023/04/10 07:51:22;;;;;;;10.80;9.70;;;24.10;1.00;;;;;;5027539;28;20206;-67
2023/04/10 07:53:49;;;;;;;10.95;9.75;;;23.80;1.00;;;;;;5043761;28;20203;-65
2023/04/10 07:56:20;;;;;;;11.85;10.23;;;21.70;1.00;;;;;;5044196;28;20234;-65
2023/04/10 07:58:48;;;;;;;12.52;10.38;;;20.20;1.00;;;;;;5043527;28;20640;-65
2023/04/10 08:01:18;;;;;;;9.88;8.88;;;19.70;1.00;;;;;;5044111;28;20269;-65
2023/04/10 08:03:46;;;;;;;9.95;9.02;;;20.80;1.00;;;;;;5042773;28;21253;-63
2023/04/10 08:06:13;;;;;;;10.70;9.60;;;21.20;1.00;;;;;;5041985;28;20192;-64
2023/04/10 08:08:41;;;;;;;10.50;9.45;;;21.30;1.00;;;;;;5042608;28;20184;-63
2023/04/10 08:11:26;;;;;;;11.13;8.88;;;21.00;1.00;;;;;;5040685;28;20227;-64
2023/04/10 08:13:56;;;;;;;8.73;7.85;;;22.40;1.00;;;;;;5035204;28;20614;-64
2023/04/10 08:16:25;;;;;;;8.45;7.60;;;21.80;1.00;;;;;;5045079;28;20198;-63
2023/04/10 08:18:53;;;;;;;8.20;7.40;;;19.00;1.00;;;;;;5042935;28;20199;-66
2023/04/10 08:21:22;;;;;;;8.60;7.75;;;18.40;1.00;;;;;;5021010;28;20663;-66
2023/04/10 08:23:50;;;;;;;9.50;7.82;;;18.50;1.00;;;;;;5044200;28;20322;-66
2023/04/10 08:26:18;;;;;;;8.00;7.07;;;19.90;1.00;;;;;;5027492;28;20230;-65
2023/04/10 08:28:50;;;;;;;8.05;6.63;;;19.60;1.00;;;;;;5043358;28;20192;-65
2023/04/10 08:31:19;;;;;;;10.20;7.60;;;20.00;1.00;;;;;;5041607;28;20238;-65
2023/04/10 08:33:47;;;;;;;9.23;7.10;;;20.20;1.00;;;;;;5059972;28;21081;-66
2023/04/10 08:36:15;;;;;;;8.82;7.05;;;20.70;1.00;;;;;;5044305;28;20199;-64
2023/04/10 08:38:46;;;;;;;6.90;6.03;;;21.40;1.00;;;;;;5041676;28;20528;-65
2023/04/10 08:41:15;;;;;;;7.75;6.57;;;20.70;1.00;;;;;;5043028;28;20244;-65
2023/04/10 08:43:44;;;;;;;6.97;6.25;;;20.70;1.00;;;;;;5043102;28;20552;-65
2023/04/10 08:46:14;;;;;;;6.95;6.25;;;18.90;1.00;;;;;;5024239;28;20188;-65
2023/04/10 08:48:52;;;;;;;7.53;6.80;;;19.10;1.00;;;;;;5042856;28;20219;-65
2023/04/10 08:51:21;;;;;;;8.13;6.63;;;18.60;1.00;;;;;;5040748;28;20238;-64
2023/04/10 08:54:01;;;;;;;7.70;6.70;;;17.60;1.00;;;;;;5026875;28;20284;-64
2023/04/10 08:56:31;;;;;;;8.50;6.80;;;19.10;1.00;;;;;;5042812;28;20728;-64
2023/04/10 08:59:02;;;;;;;7.07;6.32;;;19.60;1.00;;;;;;5055559;28;20233;-65
2023/04/10 09:01:30;;;;;;;7.97;7.03;;;19.40;1.00;;;;;;5038752;28;20549;-65
2023/04/10 09:03:57;;;;;;;7.30;6.60;;;20.50;1.00;;;;;;5044364;28;20242;-66
2023/04/10 09:06:26;;;;;;;7.28;6.57;;;21.50;1.00;;;;;;5046525;28;20265;-64
2023/04/10 09:08:53;;;;;;;6.78;6.10;;;22.30;1.00;;;;;;5044403;28;20206;-64
2023/04/10 09:11:20;;;;;;;6.45;5.78;;;22.00;1.00;;;;;;5044544;28;20667;-63
2023/04/10 09:13:47;;;;;;;8.20;5.50;;;22.30;1.00;;;;;;5038814;28;20616;-63
2023/04/10 09:16:14;;;;;;;6.25;5.65;;;22.50;1.00;;;;;;5045960;28;20733;-64
2023/04/10 09:18:44;;;;;;;5.68;5.18;;;23.00;1.00;;;;;;5046747;28;20207;-63
2023/04/10 09:21:14;;;;;;;9.18;5.07;;;22.50;1.00;;;;;;5044198;28;21119;-63
2023/04/10 09:23:43;;;;;;;5.07;4.55;;;21.50;1.00;;;;;;5046981;28;20235;-66
2023/04/10 09:26:24;;;;;;;5.78;5.25;;;22.60;1.00;;;;;;5045886;28;20219;-66
2023/04/10 09:29:03;;;;;;;5.18;4.68;;;22.00;1.00;;;;;;5040755;28;20218;-67
2023/04/10 09:31:35;;;;;;;5.15;4.65;;;22.80;1.00;;;;;;5052782;28;21271;-64
2023/04/10 09:34:11;;;;;;;5.15;4.65;;;23.60;1.00;;;;;;5038157;28;20246;-66
2023/04/10 09:36:41;;;;;;;5.28;4.78;;;23.40;1.00;;;;;;5042334;28;20218;-65
2023/04/10 09:39:10;;;;;;;7.03;5.20;;;22.60;1.00;;;;;;5052980;28;20227;-67
2023/04/10 09:41:52;;;;;;;5.13;4.10;;;23.60;1.00;;;;;;5044416;28;20191;-66
2023/04/10 09:44:32;;;;;;;4.63;4.22;;;23.00;1.00;;;;;;5044115;28;20594;-66
2023/04/10 09:47:18;;;;;;;4.70;4.22;;;23.20;1.00;;;;;;5036771;28;20240;-67
2023/04/10 09:49:51;;;;;;;4.97;4.15;;;22.60;1.00;;;;;;5038504;28;20197;-67
2023/04/10 09:52:26;;;;;;;5.95;4.65;;;21.70;1.00;;;;;;5047433;28;20812;-66
2023/04/10 09:54:55;;;;;;;5.20;4.70;;;20.90;1.00;;;;;;5047049;28;20701;-66
2023/04/10 09:57:24;;;;;;;5.53;4.05;;;21.70;1.00;;;;;;5044703;28;20571;-67
2023/04/10 09:59:53;;;;;;;4.38;3.97;;;22.20;1.00;;;;;;5046301;28;20215;-68
2023/04/10 10:02:22;;;;;;;4.80;4.40;;;21.90;1.00;;;;;;5035143;28;20723;-67
2023/04/10 10:04:51;;;;;;;5.65;4.30;;;21.80;1.00;;;;;;5044437;28;20262;-67
2023/04/10 10:07:20;;;;;;;4.47;3.90;;;21.60;1.00;;;;;;5043383;28;20195;-67
2023/04/10 10:09:50;;;;;;;4.25;3.85;;;21.90;1.00;;;;;;5042916;28;20300;-67
2023/04/10 10:12:34;;;;;;;4.07;3.78;;;21.60;1.00;;;;;;5038215;28;20207;-67
2023/04/10 10:15:19;;;;;;;4.65;4.00;;;21.40;1.00;;;;;;5046609;28;20200;-68
2023/04/10 10:17:51;;;;;;;4.30;3.90;;;21.50;1.00;;;;;;5043329;28;20227;-67
2023/04/10 10:20:21;;;;;;;4.50;4.05;;;20.70;1.00;;;;;;5043441;28;20277;-68
2023/04/10 10:22:50;;;;;;;4.70;4.22;;;20.60;1.00;;;;;;5043502;28;20698;-68
2023/04/10 10:25:21;;;;;;;4.47;3.90;;;22.10;1.00;;;;;;5043668;28;20298;-69
2023/04/10 10:27:51;;;;;;;4.55;4.05;;;20.90;1.00;;;;;;5027377;28;20199;-65
2023/04/10 10:30:19;;;;;;;4.53;4.13;;;21.50;1.00;;;;;;5027211;28;20277;-66
2023/04/10 10:32:57;;;;;;;4.25;3.85;;;21.30;1.00;;;;;;5044138;28;20262;-66
2023/04/10 10:35:30;;;;;;;4.07;3.50;;;20.90;1.00;;;;;;5045461;28;20650;-68
2023/04/10 10:38:03;;;;;;;4.90;3.50;;;20.30;1.00;;;;;;5044948;28;20192;-66
2023/04/10 10:40:46;;;;;;;5.72;3.60;;;20.80;1.00;;;;;;5060642;28;20687;-66
2023/04/10 10:43:34;;;;;;;4.00;3.50;;;21.10;1.00;;;;;;5061118;28;20203;-66
2023/04/10 10:46:05;;;;;;;6.10;3.25;;;21.40;1.00;;;;;;5024098;28;20218;-66
2023/04/10 10:48:33;;;;;;;4.15;3.75;;;20.30;1.00;;;;;;5042576;28;20204;-66
2023/04/10 10:51:02;;;;;;;3.30;3.00;;;20.80;1.00;;;;;;5021531;28;20200;-67
2023/04/10 10:53:39;;;;;;;3.30;3.00;;;20.50;1.00;;;;;;5040698;28;20667;-66
2023/04/10 10:56:19;;;;;;;3.70;3.40;;;20.20;1.00;;;;;;5032545;28;20199;-67
2023/04/10 10:58:46;;;;;;;4.75;3.33;;;20.40;1.00;;;;;;5040352;28;20195;-67
2023/04/10 11:01:14;;;;;;;3.20;2.95;;;20.30;1.00;;;;;;5042379;28;20235;-67
2023/04/10 11:03:45;;;;;;;3.05;2.80;;;19.90;1.00;;;;;;5038251;28;20235;-66
2023/04/10 11:06:16;;;;;;;3.47;3.17;;;20.00;1.00;;;;;;5040433;28;20192;-67
2023/04/10 11:08:48;;;;;;;3.80;3.42;;;19.60;1.00;;;;;;5043750;28;20192;-67
2023/04/10 11:11:20;;;;;;;3.60;3.30;;;18.90;1.00;;;;;;5042892;28;20271;-66
2023/04/10 11:13:56;;;;;;;3.08;2.80;;;19.30;1.00;;;;;;5043250;28;20207;-67
2023/04/10 11:16:40;;;;;;;3.40;3.03;;;19.50;1.00;;;;;;5041931;28;20206;-67
2023/04/10 11:19:11;;;;;;;2.92;2.72;;;19.00;1.00;;;;;;5044312;28;20203;-67
2023/04/10 11:22:09;;;;;;;3.33;3.03;;;19.00;1.00;;;;;;5043459;28;20561;-68
2023/04/10 11:24:57;;;;;;;3.05;2.75;;;19.10;1.00;;;;;;5041879;28;20254;-67
2023/04/10 11:27:47;;;;;;;4.10;2.70;;;19.60;1.00;;;;;;5042064;28;20846;-67
2023/04/10 11:30:34;;;;;;;3.13;2.67;;;19.60;1.00;;;;;;5043445;28;20887;-67
2023/04/10 11:33:02;;;;;;;3.30;3.00;;;19.70;1.00;;;;;;5041411;28;20195;-66
2023/04/10 11:35:30;;;;;;;3.28;2.90;;;19.80;1.00;;;;;;5043772;28;20955;-67
2023/04/10 11:38:17;;;;;;;3.03;2.72;;;19.70;1.00;;;;;;5044129;28;20611;-66
2023/04/10 11:41:05;;;;;;;3.40;3.10;;;19.50;1.00;;;;;;5041375;28;20273;-67
2023/04/10 11:43:35;;;;;;;2.90;2.63;;;19.30;1.00;;;;;;5021672;28;20227;-68
2023/04/10 11:46:06;;;;;;;4.00;2.78;;;19.30;1.00;;;;;;5040975;28;20274;-66
2023/04/10 11:48:33;;;;;;;4.03;2.85;;;19.30;1.00;;;;;;5046267;28;20211;-68
2023/04/10 11:51:11;;;;;;;2.88;2.50;;;19.30;1.00;;;;;;5043782;28;20214;-66
2023/04/10 11:53:40;;;;;;;4.10;2.67;;;19.00;1.00;;;;;;5018640;28;20582;-66
2023/04/10 11:56:22;;;;;;;3.28;2.97;;;19.30;1.00;;;;;;5039926;28;20203;-67
2023/04/10 11:58:52;;;;;;;3.63;3.03;;;19.70;1.00;;;;;;5024166;28;20220;-67
2023/04/10 12:01:22;;;;;;;3.10;2.75;;;20.20;1.00;;;;;;5051985;28;20370;-67
2023/04/10 12:03:49;;;;;;;3.20;2.90;;;20.70;1.00;;;;;;5038785;28;20235;-66
2023/04/10 12:06:18;;;;;;;3.38;3.00;;;20.60;1.00;;;;;;5041367;28;20196;-69
2023/04/10 12:08:48;;;;;;;3.10;2.80;;;20.30;1.00;;;;;;5026536;28;20207;-67
2023/04/10 12:11:19;;;;;;;4.00;2.63;;;20.20;1.00;;;;;;5034550;28;20217;-67
2023/04/10 12:13:47;;;;;;;3.05;2.75;;;20.20;1.00;;;;;;5040553;28;20720;-67
2023/04/10 12:16:14;;;;;;;3.40;3.08;;;20.30;1.00;;;;;;5041568;28;20633;-68
2023/04/10 12:18:44;;;;;;;3.55;3.20;;;19.80;1.00;;;;;;5045582;28;20205;-66
2023/04/10 12:21:11;;;;;;;4.65;2.95;;;20.10;1.00;;;;;;5042992;28;20219;-67
2023/04/10 12:23:38;;;;;;;3.17;2.85;;;19.40;1.00;;;;;;5043836;28;20551;-67
2023/04/10 12:26:12;;;;;;;3.22;2.92;;;19.50;1.00;;;;;;5042577;28;20500;-67
2023/04/10 12:28:41;;;;;;;3.40;3.10;;;19.30;1.00;;;;;;5026198;28;20196;-67
2023/04/10 12:31:10;;;;;;;3.10;2.80;;;19.70;1.00;;;;;;5020635;28;20199;-69
2023/04/10 12:33:38;;;;;;;3.20;2.85;;;19.90;1.00;;;;;;5043314;28;20840;-67
2023/04/10 12:36:18;;;;;;;3.17;2.88;;;19.50;1.00;;;;;;5030429;28;20256;-67
2023/04/10 12:38:45;;;;;;;3.15;2.85;;;19.40;1.00;;;;;;5047153;28;20202;-67
2023/04/10 12:41:19;;;;;;;4.13;3.30;;;19.40;1.00;;;;;;5047328;28;20195;-68
2023/04/10 12:43:46;;;;;;;3.92;3.30;;;19.70;1.00;;;;;;5046803;28;20215;-68
2023/04/10 12:46:25;;;;;;;3.63;3.13;;;19.40;1.00;;;;;;5045924;28;20199;-67
2023/04/10 12:48:54;;;;;;;3.70;3.30;;;19.20;1.00;;;;;;5046961;28;20209;-68
2023/04/10 12:52:00;;;;;;;3.88;3.17;;;19.70;1.00;;;;;;5027613;28;20210;-68
2023/04/10 12:54:30;;;;;;;3.60;3.10;;;19.90;1.00;;;;;;4970591;28;20221;-67
2023/04/10 12:56:58;;;;;;;3.63;3.05;;;19.30;1.00;;;;;;4985409;28;20348;-68
2023/04/10 12:59:25;;;;;;;4.30;3.20;;;19.40;1.00;;;;;;5017196;28;20571;-67
2023/04/10 13:01:53;;;;;;;3.60;3.10;;;19.40;1.00;;;;;;5047139;28;21018;-68
2023/04/10 13:04:20;;;;;;;3.22;2.92;;;20.00;1.00;;;;;;5046903;28;20715;-65
2023/04/10 13:06:51;;;;;;;3.13;2.83;;;20.20;1.00;;;;;;5043110;28;20747;-67
2023/04/10 13:09:18;;;;;;;2.95;2.67;;;19.50;1.00;;;;;;5044734;28;20183;-66
2023/04/10 13:11:46;;;;;;;3.30;3.00;;;19.10;1.00;;;;;;5037952;28;20683;-68
2023/04/10 13:14:17;;;;;;;4.22;3.38;;;19.30;1.00;;;;;;5041158;28;20223;-67
2023/04/10 13:16:44;;;;;;;2.75;2.50;;;19.00;1.00;;;;;;5045069;28;20196;-66
2023/04/10 13:19:12;;;;;;;3.42;3.13;;;19.10;1.00;;;;;;5041388;28;20204;-66